This demonstration page uses our WeatherBlox Daily Observations layout. Learn more.

39.08367, -84.50855

Hourly Observations for June 30, 2019

Temp ( °F °C ) Dew Point ( °F °C ) Humidity (%) Winds ( mph kmh ) Pressure ( in mb ) Visibility ( mi km ) Precip ( " mm )
12:53 am 00:53 Mostly Clear 74 23.3 70 21.1 88 88 Calm 30.03 1017 10 16.09344 0 0
1:53 am 01:53 Mostly Clear 72 22.2 70 21.1 94 94 S 3 6 30.03 1017 10 16.09344 0 0
2:53 am 02:53 Clear 71 21.7 69 20.6 94 94 Calm 30 1016 9 14.484096 0 0
3:53 am 03:53 Clear 71 21.7 69 20.6 94 94 Calm 30 1016 9 14.484096 0 0
4:53 am 04:53 Mostly Cloudy 71 21.7 69 20.6 94 94 Calm 30 1016 8 12.874752 0 0
5:53 am 05:53 Mostly Clear 71 21.7 70 21.1 96 96 Calm 30 1016 8 12.874752 0 0
6:53 am 06:53 Mostly Sunny 71 21.7 69 20.6 94 94 SSW 5 7 30 1016 10 16.09344 0 0
7:53 am 07:53 Sunny 76 24.4 73 22.8 91 91 Calm 30.03 1017 10 16.09344 0 0
8:53 am 08:53 Partly Cloudy 80 26.7 71 21.7 74 74 W 6 9 30.03 1017 10 16.09344 0 0
9:53 am 09:53 Partly Cloudy 82 27.8 71 21.7 69 69 NW 7 11 30.03 1017 10 16.09344 0 0
10:53 am 10:53 Mostly Sunny 84 28.9 71 21.7 65 65 WSW 6 9 30 1016 10 16.09344 0 0
11:53 am 11:53 Mostly Sunny 87 30.6 69 20.6 55 55 NW 6 9 30 1016 10 16.09344 0 0
12:53 pm 12:53 Partly Cloudy 88 31.1 70 21.1 55 55 VRB 6 9 30 1016 10 16.09344 0 0
1:53 pm 13:53 Partly Cloudy 89 31.7 70 21.1 53 53 W 9 15 30 1016 10 16.09344 0 0
2:53 pm 14:53 Partly Cloudy 91 32.8 69 20.6 49 49 WNW 12 19 29.97 1015 10 16.09344 0 0
3:53 pm 15:53 Mostly Cloudy 91 32.8 68 20 47 47 N 9 15 29.94 1014 10 16.09344 0 0
4:53 pm 16:53 Partly Cloudy 91 32.8 66 18.9 44 44 N 10 17 29.91 1013 10 16.09344 0 0
5:53 pm 17:53 Partly Cloudy 90 32.2 67 19.4 47 47 N 8 13 29.91 1013 10 16.09344 0 0
6:53 pm 18:53 Partly Cloudy 89 31.7 63 17.2 42 42 NNE 9 15 29.91 1013 10 16.09344 0 0
7:53 pm 19:53 Sunny 87 30.6 63 17.2 45 45 NNE 6 9 29.94 1014 10 16.09344 0 0
8:53 pm 20:53 Sunny 77 25 68 20 74 74 Calm 29.94 1014 10 16.09344 0 0
9:53 pm 21:53 Clear 73 22.8 67 19.4 81 81 SW 5 7 29.97 1015 10 16.09344 0 0
10:53 pm 22:53 Clear 70 21.1 66 18.9 87 87 S 3 6 29.97 1015 10 16.09344 0 0
11:53 pm 23:53 Clear 73 22.8 66 18.9 79 79 Calm 30 1016 10 16.09344 0 0

Powered by AerisWeather